createdAt,value
2018-08-03T00:00:58.940Z,49.02
2018-08-03T00:03:33.350Z,50.02
2018-08-03T00:06:07.670Z,50.16
2018-08-03T00:08:42.004Z,49.79
2018-08-03T00:11:16.980Z,50.25
2018-08-03T00:13:51.430Z,50.56
2018-08-03T00:16:25.936Z,50.93
2018-08-03T00:19:00.827Z,51.37
2018-08-03T00:21:35.343Z,52.03
2018-08-03T00:24:15.644Z,51.51
2018-08-03T00:26:50.203Z,52.00
2018-08-03T00:29:24.696Z,53.25
2018-08-03T00:31:59.128Z,53.32
2018-08-03T00:34:33.693Z,53.18
2018-08-03T00:37:08.209Z,52.70
2018-08-03T00:39:42.795Z,52.71
2018-08-03T00:42:17.486Z,52.97
2018-08-03T00:44:51.868Z,53.20
2018-08-03T00:47:26.306Z,52.63
2018-08-03T00:50:00.772Z,53.05
2018-08-03T00:52:35.232Z,53.64
2018-08-03T00:55:09.710Z,53.57
2018-08-03T00:57:44.178Z,54.29
2018-08-03T01:00:18.830Z,54.43
2018-08-03T01:05:56.616Z,56.25
2018-08-03T01:08:31.121Z,56.17
2018-08-03T01:11:05.788Z,56.37
2018-08-03T01:13:40.600Z,55.51
2018-08-03T01:16:15.256Z,56.19
2018-08-03T01:18:49.680Z,56.54
2018-08-03T01:21:24.412Z,56.43
2018-08-03T01:23:59.040Z,56.25
2018-08-03T01:26:33.528Z,55.72
2018-08-03T01:29:08.176Z,55.99
2018-08-03T01:31:42.676Z,55.77
2018-08-03T01:34:17.107Z,56.03
2018-08-03T01:36:51.709Z,56.03
2018-08-03T01:39:26.264Z,56.52
2018-08-03T01:42:00.698Z,56.81
2018-08-03T01:44:43.588Z,56.90
2018-08-03T01:47:18.342Z,56.92
2018-08-03T01:49:55.021Z,57.02
2018-08-03T01:52:29.642Z,57.78
2018-08-03T01:55:04.064Z,56.99
2018-08-03T01:57:38.355Z,57.28
2018-08-03T02:00:19.791Z,57.96
2018-08-03T02:03:10.511Z,57.13
2018-08-03T02:05:48.381Z,57.08
2018-08-03T02:08:22.667Z,56.74
2018-08-03T02:10:57.031Z,56.75
2018-08-03T02:13:31.444Z,57.26
2018-08-03T02:16:05.951Z,57.52
2018-08-03T02:18:40.216Z,57.32
2018-08-03T02:21:14.575Z,56.87
2018-08-03T02:23:48.967Z,56.81
2018-08-03T02:26:23.434Z,57.52
2018-08-03T02:28:57.864Z,57.04
2018-08-03T02:31:32.167Z,57.28
2018-08-03T02:34:06.581Z,57.20
2018-08-03T02:36:40.976Z,57.45
2018-08-03T02:39:15.379Z,58.06
2018-08-03T02:41:49.857Z,58.62
2018-08-03T02:44:24.281Z,58.47
2018-08-03T02:46:59.084Z,58.74
2018-08-03T02:49:33.624Z,58.72
2018-08-03T02:52:08.484Z,58.52
2018-08-03T02:54:43.012Z,59.11
2018-08-03T02:57:17.448Z,59.84
2018-08-03T02:59:52.069Z,59.54
2018-08-03T03:02:26.605Z,59.21
2018-08-03T03:05:01.037Z,60.10
2018-08-03T03:07:35.754Z,59.92
2018-08-03T03:10:10.357Z,60.20
2018-08-03T03:12:44.797Z,61.00
2018-08-03T03:15:19.568Z,59.62
2018-08-03T03:17:54.278Z,60.31
2018-08-03T03:20:28.825Z,60.71
2018-08-03T03:23:03.380Z,60.52
2018-08-03T03:25:38.700Z,61.39
2018-08-03T03:28:13.132Z,61.13
2018-08-03T03:30:47.602Z,61.10
2018-08-03T03:33:22.208Z,61.24
2018-08-03T03:35:56.780Z,62.43
2018-08-03T03:38:31.810Z,63.11
2018-08-03T03:41:06.398Z,63.75
2018-08-03T03:43:40.885Z,64.08
2018-08-03T03:46:15.484Z,63.88
2018-08-03T03:48:50.176Z,64.55
2018-08-03T03:51:25.184Z,64.31
2018-08-03T03:53:59.820Z,64.01
2018-08-03T03:56:34.288Z,64.53
2018-08-03T03:59:08.910Z,64.62
2018-08-03T04:01:43.733Z,64.19
2018-08-03T04:04:21.729Z,64.46
2018-08-03T04:06:56.331Z,64.21
2018-08-03T04:09:30.804Z,64.46
2018-08-03T04:12:05.233Z,63.70
2018-08-03T04:14:39.800Z,63.07
2018-08-03T04:17:14.176Z,63.17
2018-08-03T04:19:48.611Z,63.29
2018-08-03T04:22:23.141Z,62.77
2018-08-03T04:24:57.589Z,63.30
2018-08-03T04:27:32.020Z,63.82
2018-08-03T04:30:06.962Z,63.34
2018-08-03T04:32:41.516Z,64.17
2018-08-03T04:35:16.128Z,64.49
2018-08-03T04:37:50.523Z,64.02
2018-08-03T04:40:24.968Z,63.63
2018-08-03T04:43:03.676Z,64.07
2018-08-03T04:45:38.264Z,63.91
2018-08-03T04:48:12.780Z,64.07
2018-08-03T04:50:47.485Z,63.93
2018-08-03T04:53:22.092Z,63.65
2018-08-03T04:55:56.509Z,64.17
2018-08-03T04:58:31.314Z,64.03
2018-08-03T05:01:05.753Z,63.85
2018-08-03T05:03:40.088Z,64.09
2018-08-03T05:06:14.493Z,63.37
2018-08-03T05:08:48.856Z,63.51
2018-08-03T05:11:23.293Z,63.85
2018-08-03T05:13:57.713Z,63.47
2018-08-03T05:16:32.144Z,63.86
2018-08-03T05:19:06.853Z,63.33
2018-08-03T05:21:41.389Z,63.79
2018-08-03T05:27:15.337Z,65.22
2018-08-03T05:29:50.052Z,63.13
2018-08-03T05:32:24.573Z,63.03
2018-08-03T05:34:59.016Z,61.16
2018-08-03T05:37:33.620Z,59.71
2018-08-03T05:40:08.126Z,61.23
2018-08-03T05:42:42.737Z,60.87
2018-08-03T05:45:17.263Z,59.83
2018-08-03T05:47:51.687Z,59.68
2018-08-03T05:50:26.088Z,57.57
2018-08-03T05:53:00.733Z,55.96
2018-08-03T05:55:35.380Z,54.74
2018-08-03T05:58:10.057Z,54.94
2018-08-03T06:00:44.556Z,56.02
2018-08-03T06:03:19.137Z,56.05
2018-08-03T06:05:53.804Z,54.98
2018-08-03T06:08:28.396Z,54.49
2018-08-03T06:11:03.111Z,57.38
2018-08-03T06:13:37.702Z,55.13
2018-08-03T06:16:12.144Z,57.67
2018-08-03T06:18:46.633Z,54.92
2018-08-03T06:21:21.318Z,50.55
2018-08-03T06:23:55.698Z,43.73
2018-08-03T06:26:30.191Z,40.12
2018-08-03T06:29:04.617Z,33.51
2018-08-03T06:31:39.180Z,32.18
2018-08-03T06:34:13.637Z,31.12
2018-08-03T06:36:48.230Z,31.33
2018-08-03T06:39:22.729Z,31.31
2018-08-03T06:41:57.304Z,30.95
2018-08-03T06:44:31.936Z,29.93
2018-08-03T06:47:06.497Z,30.48
2018-08-03T06:49:41.293Z,29.68
2018-08-03T06:52:15.767Z,28.11
2018-08-03T06:54:50.120Z,29.44
2018-08-03T06:57:24.767Z,29.01
2018-08-03T06:59:59.268Z,28.58
2018-08-03T07:02:33.732Z,27.55
2018-08-03T07:05:08.396Z,26.27
2018-08-03T07:07:42.758Z,25.77
2018-08-03T07:10:17.178Z,25.55
2018-08-03T07:12:52.193Z,26.99
2018-08-03T07:15:26.717Z,26.01
2018-08-03T07:18:01.201Z,24.74
2018-08-03T07:20:35.612Z,24.90
2018-08-03T07:23:09.934Z,25.98
2018-08-03T07:25:44.320Z,26.28
2018-08-03T07:28:18.800Z,24.67
2018-08-03T07:30:53.112Z,21.61
2018-08-03T07:33:46.582Z,21.18
2018-08-03T07:36:21.033Z,20.97
2018-08-03T07:38:55.545Z,21.45
2018-08-03T07:41:29.996Z,19.93
2018-08-03T07:44:21.518Z,19.14
2018-08-03T07:46:55.823Z,21.44
2018-08-03T07:49:30.488Z,22.06
2018-08-03T07:52:05.179Z,22.42
2018-08-03T07:54:39.521Z,23.56
2018-08-03T07:57:13.960Z,21.68
2018-08-03T07:59:48.316Z,19.73
2018-08-03T08:02:23.070Z,20.21
2018-08-03T08:04:57.633Z,21.78
2018-08-03T08:07:32.200Z,21.62
2018-08-03T08:10:06.595Z,23.31
2018-08-03T08:12:40.984Z,22.89
2018-08-03T08:15:15.433Z,22.30
2018-08-03T08:17:49.980Z,22.19
2018-08-03T08:20:24.396Z,22.26
2018-08-03T08:22:58.854Z,21.57
2018-08-03T08:25:33.273Z,23.09
2018-08-03T08:28:07.801Z,24.89
2018-08-03T08:30:42.369Z,21.47
2018-08-03T08:33:16.806Z,21.54
2018-08-03T08:35:51.364Z,21.04
2018-08-03T08:38:25.812Z,20.92
2018-08-03T08:41:00.194Z,20.63
2018-08-03T08:43:34.544Z,19.99
2018-08-03T08:46:08.993Z,21.16
2018-08-03T08:48:43.506Z,21.64
2018-08-03T08:51:17.994Z,19.97
2018-08-03T08:53:52.409Z,23.11
2018-08-03T08:56:26.989Z,23.18
2018-08-03T08:59:01.332Z,22.51
2018-08-03T09:01:35.736Z,20.65
2018-08-03T09:04:10.096Z,19.82
2018-08-03T09:06:44.533Z,19.72
2018-08-03T09:09:18.933Z,23.62
2018-08-03T09:11:53.386Z,19.30
2018-08-03T09:14:27.909Z,19.26
2018-08-03T09:17:22.221Z,21.49
2018-08-03T09:20:16.096Z,20.13
2018-08-03T09:22:50.664Z,19.91
2018-08-03T09:25:25.532Z,19.17
2018-08-03T09:28:10.504Z,18.47
2018-08-03T09:30:58.908Z,19.12
2018-08-03T09:33:36.824Z,18.70
2018-08-03T09:36:21.455Z,19.00
2018-08-03T09:38:55.959Z,17.98
2018-08-03T09:41:30.552Z,18.69
2018-08-03T09:44:05.334Z,17.44
2018-08-03T09:46:39.874Z,18.43
2018-08-03T09:49:14.427Z,20.12
2018-08-03T09:51:48.925Z,18.18
2018-08-03T09:54:23.576Z,18.21
2018-08-03T09:56:57.872Z,15.85
2018-08-03T09:59:32.340Z,19.24
2018-08-03T10:02:06.803Z,20.46
2018-08-03T10:04:41.176Z,17.77
2018-08-03T10:07:15.790Z,18.37
2018-08-03T10:09:50.864Z,17.30
2018-08-03T10:12:27.480Z,20.68
2018-08-03T10:15:01.841Z,21.30
2018-08-03T10:17:36.300Z,22.73
2018-08-03T10:20:10.668Z,23.06
2018-08-03T10:22:45.094Z,20.92
2018-08-03T10:25:19.586Z,20.02
2018-08-03T10:27:53.992Z,20.74
2018-08-03T10:30:28.537Z,20.59
2018-08-03T10:33:02.934Z,23.15
2018-08-03T10:35:37.319Z,24.61
2018-08-03T10:38:11.664Z,22.85
2018-08-03T10:40:46.112Z,21.81
2018-08-03T10:43:41.172Z,22.20
2018-08-03T10:46:15.676Z,26.19
2018-08-03T10:49:02.822Z,27.09
2018-08-03T10:51:41.308Z,27.27
2018-08-03T10:54:15.724Z,30.20
2018-08-03T10:56:50.380Z,30.56
2018-08-03T10:59:24.951Z,31.42
2018-08-03T11:01:59.322Z,35.13
2018-08-03T11:04:34.000Z,34.11
2018-08-03T11:07:08.721Z,34.32
2018-08-03T11:09:43.290Z,36.46
2018-08-03T11:12:17.800Z,33.69
2018-08-03T11:14:52.292Z,34.79
2018-08-03T11:17:26.773Z,34.17
2018-08-03T11:20:01.272Z,35.75
2018-08-03T11:22:35.685Z,33.99
2018-08-03T11:25:10.360Z,35.96
2018-08-03T11:27:45.073Z,34.38
2018-08-03T11:30:19.681Z,32.34
2018-08-03T11:32:54.249Z,31.87
2018-08-03T11:35:28.739Z,30.65
2018-08-03T11:38:03.133Z,29.33
2018-08-03T11:40:37.572Z,27.94
2018-08-03T11:43:12.015Z,27.08
2018-08-03T11:45:46.519Z,25.41
2018-08-03T11:48:20.953Z,27.91
2018-08-03T11:50:55.339Z,29.09
2018-08-03T11:53:29.862Z,30.25
2018-08-03T11:56:04.521Z,30.06
2018-08-03T11:58:39.179Z,30.84
2018-08-03T12:01:13.604Z,36.12
2018-08-03T12:03:48.049Z,31.09
2018-08-03T12:06:22.574Z,31.79
2018-08-03T12:08:57.401Z,33.88
2018-08-03T12:11:31.800Z,32.93
2018-08-03T12:17:05.218Z,33.22
2018-08-03T12:19:39.712Z,33.33
2018-08-03T12:22:14.224Z,29.93
2018-08-03T12:24:48.716Z,30.48
2018-08-03T12:27:23.133Z,31.23
2018-08-03T12:29:57.452Z,30.33
2018-08-03T12:32:31.939Z,31.33
2018-08-03T12:35:06.406Z,29.98
2018-08-03T12:37:40.900Z,31.27
2018-08-03T12:40:15.203Z,30.42
2018-08-03T12:42:49.820Z,30.46
2018-08-03T12:45:33.833Z,29.91
2018-08-03T12:47:58.490Z,29.94
2018-08-03T12:50:33.010Z,31.86
2018-08-03T12:53:07.487Z,31.71
2018-08-03T12:55:42.033Z,31.44
2018-08-03T12:58:16.393Z,32.89
2018-08-03T13:00:50.893Z,32.06
2018-08-03T13:03:25.399Z,29.24
2018-08-03T13:05:59.825Z,29.87
2018-08-03T13:08:34.342Z,29.21
2018-08-03T13:11:08.674Z,29.48
2018-08-03T13:13:43.502Z,30.03
2018-08-03T13:16:17.953Z,28.75
2018-08-03T13:18:52.498Z,30.72
2018-08-03T13:21:36.273Z,30.51
2018-08-03T13:24:10.685Z,28.00
2018-08-03T13:26:45.300Z,29.19
2018-08-03T13:29:19.645Z,27.95
2018-08-03T13:31:54.136Z,27.49
2018-08-03T13:34:28.566Z,28.38
2018-08-03T13:37:02.981Z,29.33
2018-08-03T13:39:37.368Z,28.28
2018-08-03T13:42:11.835Z,28.57
2018-08-03T13:44:46.242Z,28.47
2018-08-03T13:47:20.574Z,28.14
2018-08-03T13:49:54.843Z,27.84
2018-08-03T13:52:29.071Z,27.74
2018-08-03T13:55:04.419Z,27.33
2018-08-03T13:57:38.945Z,27.83
2018-08-03T14:00:14.087Z,26.86
2018-08-03T14:02:48.444Z,27.30
2018-08-03T14:05:22.876Z,26.75
2018-08-03T14:07:57.256Z,27.57
2018-08-03T14:10:44.352Z,27.68
2018-08-03T14:13:18.824Z,28.62
2018-08-03T14:15:53.299Z,26.59
2018-08-03T14:18:27.519Z,27.05
2018-08-03T14:21:01.824Z,29.03
2018-08-03T14:23:36.115Z,28.19
2018-08-03T14:26:10.547Z,26.89
2018-08-03T14:28:44.957Z,26.43
2018-08-03T14:31:19.409Z,26.17
2018-08-03T14:33:53.732Z,24.94
2018-08-03T14:36:28.008Z,22.19
2018-08-03T14:39:02.341Z,21.92
2018-08-03T14:41:36.998Z,22.01
2018-08-03T14:44:11.332Z,21.37
2018-08-03T14:46:45.663Z,20.76
2018-08-03T14:49:20.152Z,21.54
2018-08-03T14:51:54.883Z,20.33
2018-08-03T14:54:29.132Z,20.22
2018-08-03T14:57:03.559Z,19.56
2018-08-03T14:59:37.832Z,18.93
2018-08-03T15:02:12.084Z,19.95
2018-08-03T15:04:46.515Z,19.65
2018-08-03T15:07:20.956Z,19.83
2018-08-03T15:09:56.072Z,21.66
2018-08-03T15:12:30.378Z,22.16
2018-08-03T15:15:05.289Z,23.03
2018-08-03T15:17:39.584Z,22.14
2018-08-03T15:20:13.962Z,21.61
2018-08-03T15:22:48.396Z,21.46
2018-08-03T15:25:22.768Z,20.91
2018-08-03T15:27:57.076Z,21.14
2018-08-03T15:30:31.472Z,21.63
2018-08-03T15:33:05.892Z,22.01
2018-08-03T15:35:40.295Z,22.47
2018-08-03T15:38:14.683Z,21.26
2018-08-03T15:40:49.184Z,21.55
2018-08-03T15:43:23.584Z,22.02
2018-08-03T15:45:58.000Z,22.17
2018-08-03T15:48:32.412Z,22.61
2018-08-03T15:51:06.692Z,23.93
2018-08-03T15:53:41.035Z,24.66
2018-08-03T15:56:15.516Z,25.08
2018-08-03T15:58:50.086Z,24.83
2018-08-03T16:01:24.373Z,25.51
2018-08-03T16:03:59.008Z,25.05
2018-08-03T16:06:33.207Z,25.91
2018-08-03T16:09:08.956Z,25.93
2018-08-03T16:11:43.232Z,26.12
2018-08-03T16:14:17.651Z,25.94
2018-08-03T16:16:52.092Z,25.96
2018-08-03T16:19:26.579Z,25.84
2018-08-03T16:22:00.974Z,28.83
2018-08-03T16:24:35.167Z,27.69
2018-08-03T16:27:09.558Z,26.61
2018-08-03T16:29:43.952Z,27.45
2018-08-03T16:32:18.410Z,26.91
2018-08-03T16:34:52.882Z,28.01
2018-08-03T16:37:27.244Z,26.94
2018-08-03T16:40:02.028Z,27.72
2018-08-03T16:42:36.632Z,27.36
2018-08-03T16:45:10.814Z,28.09
2018-08-03T16:47:45.296Z,27.87
2018-08-03T16:50:19.664Z,27.68
2018-08-03T16:52:54.056Z,28.07
2018-08-03T16:55:28.348Z,27.83
2018-08-03T16:58:02.775Z,28.11
2018-08-03T17:00:37.156Z,27.75
2018-08-03T17:03:12.099Z,28.54
2018-08-03T17:05:46.456Z,27.71
2018-08-03T17:08:20.855Z,28.12
2018-08-03T17:10:55.241Z,27.37
2018-08-03T17:13:45.652Z,27.78
2018-08-03T17:16:20.008Z,27.98
2018-08-03T17:19:17.942Z,28.81
2018-08-03T17:21:55.815Z,28.75
2018-08-03T17:24:35.999Z,28.23
2018-08-03T17:27:18.536Z,28.96
2018-08-03T17:29:56.800Z,28.46
2018-08-03T17:32:31.119Z,29.02
2018-08-03T17:35:05.515Z,30.29
2018-08-03T17:37:49.715Z,30.57
2018-08-03T17:40:24.096Z,31.37
2018-08-03T17:42:58.987Z,30.81
2018-08-03T17:45:45.268Z,31.42
2018-08-03T17:48:19.501Z,31.59
2018-08-03T17:50:54.166Z,31.31
2018-08-03T17:53:28.467Z,31.41
2018-08-03T17:56:02.883Z,32.46
2018-08-03T17:58:37.287Z,32.22
2018-08-03T18:01:11.805Z,32.65
2018-08-03T18:03:46.188Z,32.29
2018-08-03T18:06:21.035Z,32.88
2018-08-03T18:08:55.285Z,32.64
2018-08-03T18:11:29.519Z,32.46
2018-08-03T18:14:11.793Z,33.20
2018-08-03T18:16:46.324Z,33.63
2018-08-03T18:19:20.708Z,33.47
2018-08-03T18:21:55.097Z,33.14
2018-08-03T18:24:29.535Z,33.85
2018-08-03T18:27:03.885Z,33.92
2018-08-03T18:29:38.275Z,34.42
2018-08-03T18:32:12.702Z,33.76
2018-08-03T18:34:46.996Z,34.51
2018-08-03T18:37:21.663Z,34.19
2018-08-03T18:39:56.187Z,34.49
2018-08-03T18:42:31.145Z,34.84
2018-08-03T18:45:06.255Z,34.64
2018-08-03T18:47:40.475Z,35.92
2018-08-03T18:50:14.877Z,35.69
2018-08-03T18:52:49.164Z,35.53
2018-08-03T18:55:23.631Z,36.43
2018-08-03T18:57:58.040Z,36.83
2018-08-03T19:00:32.448Z,36.53
2018-08-03T19:03:06.854Z,36.64
2018-08-03T19:05:41.207Z,36.71
2018-08-03T19:08:15.748Z,37.00
2018-08-03T19:10:50.004Z,37.33
2018-08-03T19:13:24.432Z,37.15
2018-08-03T19:15:58.867Z,36.83
2018-08-03T19:18:33.211Z,37.15
2018-08-03T19:21:07.636Z,37.50
2018-08-03T19:23:42.008Z,37.77
2018-08-03T19:26:16.443Z,38.22
2018-08-03T19:29:05.651Z,38.07
2018-08-03T19:31:39.916Z,37.53
2018-08-03T19:34:14.319Z,37.93
2018-08-03T19:36:48.646Z,38.46
2018-08-03T19:39:23.079Z,38.90
2018-08-03T19:41:57.699Z,38.81
2018-08-03T19:44:32.057Z,38.92
2018-08-03T19:47:06.491Z,39.28
2018-08-03T19:49:40.919Z,39.34
2018-08-03T19:52:15.294Z,39.93
2018-08-03T19:54:49.579Z,39.22
2018-08-03T19:57:23.913Z,39.18
2018-08-03T19:59:58.351Z,39.30
2018-08-03T20:02:32.780Z,40.33
2018-08-03T20:05:07.426Z,40.43
2018-08-03T20:07:41.659Z,39.99
2018-08-03T20:10:16.083Z,40.35
2018-08-03T20:12:50.435Z,40.00
2018-08-03T20:15:24.920Z,40.08
2018-08-03T20:17:59.263Z,40.24
2018-08-03T20:20:33.663Z,40.85
2018-08-03T20:23:08.060Z,40.90
2018-08-03T20:25:42.412Z,40.56
2018-08-03T20:28:16.751Z,41.01
2018-08-03T20:30:51.166Z,41.18
2018-08-03T20:33:25.431Z,41.57
2018-08-03T20:35:59.943Z,41.53
2018-08-03T20:38:34.260Z,41.45
2018-08-03T20:41:08.607Z,40.96
2018-08-03T20:43:42.935Z,41.72
2018-08-03T20:46:17.280Z,41.48
2018-08-03T20:48:51.483Z,40.97
2018-08-03T20:51:25.903Z,41.78
2018-08-03T20:54:00.712Z,41.89
2018-08-03T20:56:34.923Z,41.69
2018-08-03T20:59:09.282Z,42.19
2018-08-03T21:01:43.697Z,42.24
2018-08-03T21:04:18.078Z,42.33
2018-08-03T21:12:50.872Z,42.26
2018-08-03T21:15:25.192Z,41.90
2018-08-03T21:18:00.195Z,42.44
2018-08-03T21:20:37.400Z,42.08
2018-08-03T21:23:11.663Z,42.55
2018-08-03T21:25:46.084Z,42.67
2018-08-03T21:28:20.423Z,42.15
2018-08-03T21:30:54.927Z,42.51
2018-08-03T21:33:29.303Z,42.49
2018-08-03T21:36:03.750Z,42.70
2018-08-03T21:38:38.063Z,42.96
2018-08-03T21:41:12.500Z,42.77
2018-08-03T21:43:47.103Z,42.43
2018-08-03T21:46:21.531Z,42.85
2018-08-03T21:48:55.943Z,43.04
2018-08-03T21:51:30.371Z,43.74
2018-08-03T21:54:04.856Z,43.75
2018-08-03T21:56:39.507Z,43.77
2018-08-03T21:59:13.899Z,43.51
2018-08-03T22:01:48.300Z,43.55
2018-08-03T22:04:22.492Z,44.65
2018-08-03T22:06:56.887Z,44.68
2018-08-03T22:09:31.214Z,44.49
2018-08-03T22:12:06.137Z,45.26
2018-08-03T22:14:40.426Z,44.86
2018-08-03T22:17:14.791Z,45.75
2018-08-03T22:19:49.267Z,45.52
2018-08-03T22:22:23.703Z,46.31
2018-08-03T22:24:57.959Z,46.92
2018-08-03T22:27:32.201Z,46.03
2018-08-03T22:30:06.867Z,46.95
2018-08-03T22:32:41.278Z,47.44
2018-08-03T22:35:15.483Z,47.07
2018-08-03T22:37:49.699Z,47.57
2018-08-03T22:40:24.067Z,48.27
2018-08-03T22:42:58.483Z,47.56
2018-08-03T22:45:32.929Z,48.08
2018-08-03T22:48:07.579Z,48.25
2018-08-03T22:50:41.959Z,48.82
2018-08-03T22:53:16.230Z,48.88
2018-08-03T22:55:50.637Z,48.88
2018-08-03T22:58:25.028Z,49.68
2018-08-03T23:00:59.451Z,49.57
2018-08-03T23:03:33.814Z,50.61
2018-08-03T23:06:08.236Z,49.93
2018-08-03T23:08:42.707Z,50.52
2018-08-03T23:11:17.108Z,50.47
2018-08-03T23:13:51.811Z,49.84
2018-08-03T23:16:26.439Z,51.16
2018-08-03T23:19:00.817Z,50.28
2018-08-03T23:21:35.398Z,50.89
2018-08-03T23:24:09.844Z,50.62
2018-08-03T23:26:44.307Z,51.23
2018-08-03T23:29:18.567Z,51.61
2018-08-03T23:31:52.896Z,51.33
2018-08-03T23:34:27.311Z,51.82
2018-08-03T23:37:01.724Z,51.74
2018-08-03T23:39:37.028Z,52.39
2018-08-03T23:42:11.435Z,52.21
2018-08-03T23:44:45.848Z,51.65
2018-08-03T23:47:20.275Z,51.78
2018-08-03T23:49:54.522Z,51.65
2018-08-03T23:52:29.004Z,51.86
2018-08-03T23:55:03.296Z,52.26
2018-08-03T23:57:37.712Z,52.52
